sensor_id;sensor_type;location;lat;lon;timestamp;P1;durP1;ratioP1;P2;durP2;ratioP2
61525;SDS011;47394;41.366;-8.738;2022-12-11T00:02:51;45.92;;;30.55;;
61525;SDS011;47394;41.366;-8.738;2022-12-11T00:05:50;45.55;;;28.98;;
61525;SDS011;47394;41.366;-8.738;2022-12-11T00:08:50;42.15;;;28.13;;
61525;SDS011;47394;41.366;-8.738;2022-12-11T00:11:50;40.08;;;26.42;;
61525;SDS011;47394;41.366;-8.738;2022-12-11T00:14:49;31.08;;;24.35;;
61525;SDS011;47394;41.366;-8.738;2022-12-11T00:17:48;35.15;;;22.83;;
61525;SDS011;47394;41.366;-8.738;2022-12-11T00:20:48;33.35;;;20.98;;
61525;SDS011;47394;41.366;-8.738;2022-12-11T00:23:47;36.78;;;21.65;;
61525;SDS011;47394;41.366;-8.738;2022-12-11T00:26:46;27.20;;;20.20;;
61525;SDS011;47394;41.366;-8.738;2022-12-11T00:29:46;30.25;;;20.80;;
61525;SDS011;47394;41.366;-8.738;2022-12-11T00:32:46;27.27;;;20.45;;
61525;SDS011;47394;41.366;-8.738;2022-12-11T00:35:45;30.02;;;19.42;;
61525;SDS011;47394;41.366;-8.738;2022-12-11T00:38:45;35.13;;;19.95;;
61525;SDS011;47394;41.366;-8.738;2022-12-11T00:41:44;30.25;;;18.80;;
61525;SDS011;47394;41.366;-8.738;2022-12-11T00:44:44;29.17;;;20.17;;
61525;SDS011;47394;41.366;-8.738;2022-12-11T00:47:44;33.17;;;22.40;;
61525;SDS011;47394;41.366;-8.738;2022-12-11T00:50:43;37.13;;;23.52;;
61525;SDS011;47394;41.366;-8.738;2022-12-11T00:53:42;31.08;;;22.70;;
61525;SDS011;47394;41.366;-8.738;2022-12-11T00:56:42;34.38;;;22.95;;
61525;SDS011;47394;41.366;-8.738;2022-12-11T00:59:41;34.08;;;20.52;;
61525;SDS011;47394;41.366;-8.738;2022-12-11T01:02:41;38.33;;;22.08;;
61525;SDS011;47394;41.366;-8.738;2022-12-11T01:05:40;29.08;;;21.33;;
61525;SDS011;47394;41.366;-8.738;2022-12-11T01:08:39;33.05;;;22.40;;
61525;SDS011;47394;41.366;-8.738;2022-12-11T01:11:57;34.28;;;23.00;;
61525;SDS011;47394;41.366;-8.738;2022-12-11T01:14:58;35.78;;;21.40;;
61525;SDS011;47394;41.366;-8.738;2022-12-11T01:17:58;38.20;;;22.88;;
61525;SDS011;47394;41.366;-8.738;2022-12-11T01:20:57;32.05;;;21.23;;
61525;SDS011;47394;41.366;-8.738;2022-12-11T01:23:56;31.88;;;20.55;;
61525;SDS011;47394;41.366;-8.738;2022-12-11T01:26:56;37.78;;;22.20;;
61525;SDS011;47394;41.366;-8.738;2022-12-11T01:29:55;25.67;;;20.10;;
61525;SDS011;47394;41.366;-8.738;2022-12-11T01:32:54;29.42;;;20.38;;
61525;SDS011;47394;41.366;-8.738;2022-12-11T01:35:54;38.80;;;19.33;;
61525;SDS011;47394;41.366;-8.738;2022-12-11T01:38:54;26.67;;;17.45;;
61525;SDS011;47394;41.366;-8.738;2022-12-11T01:41:56;26.05;;;16.92;;
61525;SDS011;47394;41.366;-8.738;2022-12-11T01:48:08;28.73;;;15.95;;
61525;SDS011;47394;41.366;-8.738;2022-12-11T01:51:10;29.83;;;15.82;;
61525;SDS011;47394;41.366;-8.738;2022-12-11T01:54:10;25.42;;;16.65;;
61525;SDS011;47394;41.366;-8.738;2022-12-11T01:57:11;31.63;;;15.93;;
61525;SDS011;47394;41.366;-8.738;2022-12-11T02:00:11;26.45;;;17.27;;
61525;SDS011;47394;41.366;-8.738;2022-12-11T02:03:14;24.92;;;17.65;;
61525;SDS011;47394;41.366;-8.738;2022-12-11T02:09:45;20.70;;;14.40;;
61525;SDS011;47394;41.366;-8.738;2022-12-11T02:13:12;23.75;;;14.52;;
61525;SDS011;47394;41.366;-8.738;2022-12-11T02:16:27;24.42;;;15.00;;
61525;SDS011;47394;41.366;-8.738;2022-12-11T02:19:39;22.97;;;14.93;;
61525;SDS011;47394;41.366;-8.738;2022-12-11T02:33:04;17.92;;;11.05;;
61525;SDS011;47394;41.366;-8.738;2022-12-11T02:36:08;16.52;;;9.50;;
61525;SDS011;47394;41.366;-8.738;2022-12-11T02:39:13;12.10;;;7.35;;
61525;SDS011;47394;41.366;-8.738;2022-12-11T02:42:16;9.15;;;6.70;;
61525;SDS011;47394;41.366;-8.738;2022-12-11T02:45:18;13.20;;;6.28;;
61525;SDS011;47394;41.366;-8.738;2022-12-11T02:48:20;10.50;;;6.10;;
61525;SDS011;47394;41.366;-8.738;2022-12-11T02:51:28;10.45;;;6.00;;
61525;SDS011;47394;41.366;-8.738;2022-12-11T02:54:31;6.85;;;5.20;;
61525;SDS011;47394;41.366;-8.738;2022-12-11T02:57:37;11.20;;;5.22;;
61525;SDS011;47394;41.366;-8.738;2022-12-11T03:00:39;9.20;;;5.35;;
61525;SDS011;47394;41.366;-8.738;2022-12-11T03:03:38;9.52;;;5.20;;
61525;SDS011;47394;41.366;-8.738;2022-12-11T03:06:45;7.47;;;4.72;;
61525;SDS011;47394;41.366;-8.738;2022-12-11T03:09:46;7.55;;;4.93;;
61525;SDS011;47394;41.366;-8.738;2022-12-11T03:12:46;6.07;;;4.72;;
61525;SDS011;47394;41.366;-8.738;2022-12-11T03:16:29;9.77;;;5.03;;
61525;SDS011;47394;41.366;-8.738;2022-12-11T03:25:54;10.93;;;4.55;;
61525;SDS011;47394;41.366;-8.738;2022-12-11T03:28:57;9.70;;;4.72;;
61525;SDS011;47394;41.366;-8.738;2022-12-11T03:32:11;8.18;;;4.55;;
61525;SDS011;47394;41.366;-8.738;2022-12-11T03:35:22;13.40;;;4.90;;
61525;SDS011;47394;41.366;-8.738;2022-12-11T03:38:37;7.75;;;4.28;;
61525;SDS011;47394;41.366;-8.738;2022-12-11T03:41:41;4.65;;;3.60;;
61525;SDS011;47394;41.366;-8.738;2022-12-11T03:44:45;7.53;;;3.60;;
61525;SDS011;47394;41.366;-8.738;2022-12-11T03:47:46;6.07;;;3.60;;
61525;SDS011;47394;41.366;-8.738;2022-12-11T03:50:47;6.70;;;3.45;;
61525;SDS011;47394;41.366;-8.738;2022-12-11T03:53:48;4.82;;;2.90;;
61525;SDS011;47394;41.366;-8.738;2022-12-11T03:56:50;4.25;;;2.80;;
61525;SDS011;47394;41.366;-8.738;2022-12-11T03:59:52;4.80;;;2.90;;
61525;SDS011;47394;41.366;-8.738;2022-12-11T04:02:51;5.93;;;3.10;;
61525;SDS011;47394;41.366;-8.738;2022-12-11T04:05:51;4.20;;;3.03;;
61525;SDS011;47394;41.366;-8.738;2022-12-11T04:08:50;5.28;;;3.25;;
61525;SDS011;47394;41.366;-8.738;2022-12-11T04:11:50;7.15;;;3.70;;
61525;SDS011;47394;41.366;-8.738;2022-12-11T04:14:49;6.18;;;4.10;;
61525;SDS011;47394;41.366;-8.738;2022-12-11T04:17:48;5.30;;;3.47;;
61525;SDS011;47394;41.366;-8.738;2022-12-11T04:21:07;3.10;;;2.78;;
61525;SDS011;47394;41.366;-8.738;2022-12-11T04:24:33;3.58;;;3.28;;
61525;SDS011;47394;41.366;-8.738;2022-12-11T04:27:32;5.93;;;3.60;;
61525;SDS011;47394;41.366;-8.738;2022-12-11T04:30:31;3.35;;;2.78;;
61525;SDS011;47394;41.366;-8.738;2022-12-11T04:33:31;3.90;;;1.88;;
61525;SDS011;47394;41.366;-8.738;2022-12-11T04:36:30;2.80;;;1.42;;
61525;SDS011;47394;41.366;-8.738;2022-12-11T04:39:29;2.55;;;1.50;;
61525;SDS011;47394;41.366;-8.738;2022-12-11T04:42:29;2.33;;;1.30;;
61525;SDS011;47394;41.366;-8.738;2022-12-11T04:45:28;1.98;;;1.02;;
61525;SDS011;47394;41.366;-8.738;2022-12-11T04:48:27;1.27;;;1.17;;
61525;SDS011;47394;41.366;-8.738;2022-12-11T04:51:27;1.33;;;0.93;;
61525;SDS011;47394;41.366;-8.738;2022-12-11T04:54:28;0.82;;;0.82;;
61525;SDS011;47394;41.366;-8.738;2022-12-11T04:57:27;4.40;;;0.98;;
61525;SDS011;47394;41.366;-8.738;2022-12-11T05:00:26;1.75;;;0.77;;
61525;SDS011;47394;41.366;-8.738;2022-12-11T05:03:25;1.52;;;0.80;;
61525;SDS011;47394;41.366;-8.738;2022-12-11T05:06:25;0.85;;;0.80;;
61525;SDS011;47394;41.366;-8.738;2022-12-11T05:09:24;0.75;;;0.70;;
61525;SDS011;47394;41.366;-8.738;2022-12-11T05:12:24;0.70;;;0.70;;
61525;SDS011;47394;41.366;-8.738;2022-12-11T05:15:23;3.20;;;0.77;;
61525;SDS011;47394;41.366;-8.738;2022-12-11T05:18:22;1.88;;;0.68;;
61525;SDS011;47394;41.366;-8.738;2022-12-11T05:21:22;0.70;;;0.70;;
61525;SDS011;47394;41.366;-8.738;2022-12-11T05:24:21;0.70;;;0.70;;
61525;SDS011;47394;41.366;-8.738;2022-12-11T05:27:20;0.95;;;0.70;;
61525;SDS011;47394;41.366;-8.738;2022-12-11T05:30:20;2.30;;;0.70;;
61525;SDS011;47394;41.366;-8.738;2022-12-11T05:33:21;0.93;;;0.60;;
61525;SDS011;47394;41.366;-8.738;2022-12-11T05:36:25;1.15;;;0.75;;
61525;SDS011;47394;41.366;-8.738;2022-12-11T05:39:24;1.08;;;0.65;;
61525;SDS011;47394;41.366;-8.738;2022-12-11T05:42:23;0.75;;;0.75;;
61525;SDS011;47394;41.366;-8.738;2022-12-11T05:45:23;0.80;;;0.60;;
61525;SDS011;47394;41.366;-8.738;2022-12-11T05:48:24;0.93;;;0.50;;
61525;SDS011;47394;41.366;-8.738;2022-12-11T05:51:23;0.55;;;0.55;;
61525;SDS011;47394;41.366;-8.738;2022-12-11T05:54:23;0.52;;;0.52;;
61525;SDS011;47394;41.366;-8.738;2022-12-11T05:57:22;2.05;;;0.60;;
61525;SDS011;47394;41.366;-8.738;2022-12-11T06:00:21;0.50;;;0.47;;
61525;SDS011;47394;41.366;-8.738;2022-12-11T06:03:28;0.60;;;0.60;;
61525;SDS011;47394;41.366;-8.738;2022-12-11T06:06:27;0.75;;;0.75;;
61525;SDS011;47394;41.366;-8.738;2022-12-11T06:09:26;1.20;;;0.88;;
61525;SDS011;47394;41.366;-8.738;2022-12-11T06:12:26;4.65;;;0.80;;
61525;SDS011;47394;41.366;-8.738;2022-12-11T06:15:25;5.55;;;1.23;;
61525;SDS011;47394;41.366;-8.738;2022-12-11T06:18:24;1.00;;;0.90;;
61525;SDS011;47394;41.366;-8.738;2022-12-11T06:24:23;3.13;;;1.02;;
61525;SDS011;47394;41.366;-8.738;2022-12-11T06:27:22;2.80;;;1.27;;
61525;SDS011;47394;41.366;-8.738;2022-12-11T06:30:21;3.72;;;1.10;;
61525;SDS011;47394;41.366;-8.738;2022-12-11T06:33:21;3.10;;;1.45;;
61525;SDS011;47394;41.366;-8.738;2022-12-11T06:36:20;7.72;;;2.15;;
61525;SDS011;47394;41.366;-8.738;2022-12-11T06:39:20;3.88;;;2.30;;
61525;SDS011;47394;41.366;-8.738;2022-12-11T06:42:20;2.83;;;2.13;;
61525;SDS011;47394;41.366;-8.738;2022-12-11T06:45:19;1.92;;;1.80;;
61525;SDS011;47394;41.366;-8.738;2022-12-11T06:48:19;5.15;;;1.27;;
61525;SDS011;47394;41.366;-8.738;2022-12-11T06:51:19;3.28;;;1.20;;
61525;SDS011;47394;41.366;-8.738;2022-12-11T06:54:19;1.08;;;0.70;;
61525;SDS011;47394;41.366;-8.738;2022-12-11T06:57:19;0.60;;;0.60;;
61525;SDS011;47394;41.366;-8.738;2022-12-11T07:00:18;0.60;;;0.60;;
61525;SDS011;47394;41.366;-8.738;2022-12-11T07:03:25;0.63;;;0.60;;
61525;SDS011;47394;41.366;-8.738;2022-12-11T07:06:26;0.47;;;0.47;;
61525;SDS011;47394;41.366;-8.738;2022-12-11T07:09:26;0.50;;;0.50;;
61525;SDS011;47394;41.366;-8.738;2022-12-11T07:12:26;1.13;;;0.60;;
61525;SDS011;47394;41.366;-8.738;2022-12-11T07:15:25;0.57;;;0.57;;
61525;SDS011;47394;41.366;-8.738;2022-12-11T07:18:24;1.05;;;0.50;;
61525;SDS011;47394;41.366;-8.738;2022-12-11T07:21:24;0.57;;;0.57;;
61525;SDS011;47394;41.366;-8.738;2022-12-11T07:24:23;0.55;;;0.55;;
61525;SDS011;47394;41.366;-8.738;2022-12-11T07:27:22;2.75;;;0.70;;
61525;SDS011;47394;41.366;-8.738;2022-12-11T07:30:22;1.08;;;0.68;;
61525;SDS011;47394;41.366;-8.738;2022-12-11T07:33:23;1.75;;;0.80;;
61525;SDS011;47394;41.366;-8.738;2022-12-11T07:36:22;0.85;;;0.60;;
61525;SDS011;47394;41.366;-8.738;2022-12-11T07:39:21;0.60;;;0.60;;
61525;SDS011;47394;41.366;-8.738;2022-12-11T07:42:20;0.52;;;0.52;;
61525;SDS011;47394;41.366;-8.738;2022-12-11T07:45:19;3.47;;;0.70;;
61525;SDS011;47394;41.366;-8.738;2022-12-11T07:48:20;0.50;;;0.50;;
61525;SDS011;47394;41.366;-8.738;2022-12-11T07:54:19;1.38;;;1.10;;
61525;SDS011;47394;41.366;-8.738;2022-12-11T07:57:18;3.40;;;0.73;;
61525;SDS011;47394;41.366;-8.738;2022-12-11T08:00:18;1.80;;;0.82;;
61525;SDS011;47394;41.366;-8.738;2022-12-11T08:03:18;0.70;;;0.70;;
61525;SDS011;47394;41.366;-8.738;2022-12-11T08:06:18;1.05;;;0.65;;
61525;SDS011;47394;41.366;-8.738;2022-12-11T08:09:17;0.52;;;0.52;;
61525;SDS011;47394;41.366;-8.738;2022-12-11T08:12:16;0.60;;;0.60;;
61525;SDS011;47394;41.366;-8.738;2022-12-11T08:15:16;2.38;;;0.70;;
61525;SDS011;47394;41.366;-8.738;2022-12-11T08:18:15;1.40;;;0.77;;
61525;SDS011;47394;41.366;-8.738;2022-12-11T08:21:19;0.85;;;0.85;;
61525;SDS011;47394;41.366;-8.738;2022-12-11T08:24:19;1.17;;;0.90;;
61525;SDS011;47394;41.366;-8.738;2022-12-11T08:27:18;3.72;;;1.05;;
61525;SDS011;47394;41.366;-8.738;2022-12-11T08:30:17;1.25;;;1.13;;
61525;SDS011;47394;41.366;-8.738;2022-12-11T08:33:17;0.80;;;0.80;;
61525;SDS011;47394;41.366;-8.738;2022-12-11T08:36:17;0.95;;;0.95;;
61525;SDS011;47394;41.366;-8.738;2022-12-11T08:39:17;1.17;;;1.00;;
61525;SDS011;47394;41.366;-8.738;2022-12-11T08:42:16;1.08;;;0.98;;
61525;SDS011;47394;41.366;-8.738;2022-12-11T08:45:15;9.13;;;1.70;;
61525;SDS011;47394;41.366;-8.738;2022-12-11T08:48:15;4.70;;;2.90;;
61525;SDS011;47394;41.366;-8.738;2022-12-11T08:51:16;5.05;;;2.50;;
61525;SDS011;47394;41.366;-8.738;2022-12-11T08:54:16;3.88;;;2.38;;
61525;SDS011;47394;41.366;-8.738;2022-12-11T08:57:15;6.25;;;2.70;;
61525;SDS011;47394;41.366;-8.738;2022-12-11T09:00:14;2.42;;;2.22;;
61525;SDS011;47394;41.366;-8.738;2022-12-11T09:03:21;5.32;;;3.08;;
61525;SDS011;47394;41.366;-8.738;2022-12-11T09:06:21;3.10;;;2.10;;
61525;SDS011;47394;41.366;-8.738;2022-12-11T09:09:21;4.35;;;2.03;;
61525;SDS011;47394;41.366;-8.738;2022-12-11T09:12:20;2.13;;;1.60;;
61525;SDS011;47394;41.366;-8.738;2022-12-11T09:15:19;3.83;;;1.65;;
61525;SDS011;47394;41.366;-8.738;2022-12-11T09:18:20;2.00;;;1.50;;
61525;SDS011;47394;41.366;-8.738;2022-12-11T09:21:20;2.42;;;1.55;;
61525;SDS011;47394;41.366;-8.738;2022-12-11T09:24:20;2.30;;;1.77;;
61525;SDS011;47394;41.366;-8.738;2022-12-11T09:27:19;1.55;;;1.20;;
61525;SDS011;47394;41.366;-8.738;2022-12-11T09:30:19;1.50;;;1.40;;
61525;SDS011;47394;41.366;-8.738;2022-12-11T09:33:28;3.00;;;1.85;;
61525;SDS011;47394;41.366;-8.738;2022-12-11T09:36:28;2.00;;;1.90;;
61525;SDS011;47394;41.366;-8.738;2022-12-11T09:39:27;2.38;;;2.03;;
61525;SDS011;47394;41.366;-8.738;2022-12-11T09:42:44;3.30;;;3.00;;
61525;SDS011;47394;41.366;-8.738;2022-12-11T09:45:47;4.50;;;1.75;;
61525;SDS011;47394;41.366;-8.738;2022-12-11T09:48:48;4.65;;;2.05;;
61525;SDS011;47394;41.366;-8.738;2022-12-11T09:51:57;3.70;;;1.80;;
61525;SDS011;47394;41.366;-8.738;2022-12-11T09:55:13;2.03;;;1.83;;
61525;SDS011;47394;41.366;-8.738;2022-12-11T10:08:49;4.45;;;1.63;;
61525;SDS011;47394;41.366;-8.738;2022-12-11T10:12:05;2.53;;;1.60;;
61525;SDS011;47394;41.366;-8.738;2022-12-11T10:15:19;3.57;;;1.80;;
61525;SDS011;47394;41.366;-8.738;2022-12-11T10:18:31;1.90;;;1.38;;
61525;SDS011;47394;41.366;-8.738;2022-12-11T10:21:40;3.38;;;1.35;;
61525;SDS011;47394;41.366;-8.738;2022-12-11T10:24:44;2.83;;;1.52;;
61525;SDS011;47394;41.366;-8.738;2022-12-11T10:28:13;2.20;;;1.65;;
61525;SDS011;47394;41.366;-8.738;2022-12-11T10:31:18;3.85;;;1.65;;
61525;SDS011;47394;41.366;-8.738;2022-12-11T10:34:30;2.70;;;1.90;;
61525;SDS011;47394;41.366;-8.738;2022-12-11T10:37:53;3.17;;;2.08;;
61525;SDS011;47394;41.366;-8.738;2022-12-11T10:40:54;3.78;;;2.80;;
61525;SDS011;47394;41.366;-8.738;2022-12-11T10:43:55;9.07;;;3.20;;
61525;SDS011;47394;41.366;-8.738;2022-12-11T10:47:08;6.28;;;3.08;;
61525;SDS011;47394;41.366;-8.738;2022-12-11T10:50:22;11.32;;;2.83;;
61525;SDS011;47394;41.366;-8.738;2022-12-11T10:53:24;9.50;;;3.85;;
61525;SDS011;47394;41.366;-8.738;2022-12-11T10:56:30;6.80;;;3.50;;
61525;SDS011;47394;41.366;-8.738;2022-12-11T10:59:49;5.50;;;3.60;;
61525;SDS011;47394;41.366;-8.738;2022-12-11T11:06:25;8.25;;;3.08;;
61525;SDS011;47394;41.366;-8.738;2022-12-11T11:09:30;5.30;;;2.60;;
61525;SDS011;47394;41.366;-8.738;2022-12-11T11:12:35;7.30;;;2.40;;
61525;SDS011;47394;41.366;-8.738;2022-12-11T11:15:35;5.43;;;3.38;;
61525;SDS011;47394;41.366;-8.738;2022-12-11T11:18:36;5.05;;;3.22;;
61525;SDS011;47394;41.366;-8.738;2022-12-11T11:21:45;5.20;;;2.97;;
61525;SDS011;47394;41.366;-8.738;2022-12-11T11:24:51;6.65;;;3.65;;
61525;SDS011;47394;41.366;-8.738;2022-12-11T11:27:54;4.90;;;3.40;;
61525;SDS011;47394;41.366;-8.738;2022-12-11T11:34:06;6.90;;;3.90;;
61525;SDS011;47394;41.366;-8.738;2022-12-11T11:37:30;7.68;;;4.70;;
61525;SDS011;47394;41.366;-8.738;2022-12-11T11:40:43;4.78;;;3.67;;
61525;SDS011;47394;41.366;-8.738;2022-12-11T11:44:03;6.00;;;4.30;;
61525;SDS011;47394;41.366;-8.738;2022-12-11T11:47:17;4.57;;;3.60;;
61525;SDS011;47394;41.366;-8.738;2022-12-11T11:50:43;6.22;;;3.95;;
61525;SDS011;47394;41.366;-8.738;2022-12-11T11:53:47;8.48;;;4.40;;
61525;SDS011;47394;41.366;-8.738;2022-12-11T11:56:56;6.45;;;3.80;;
61525;SDS011;47394;41.366;-8.738;2022-12-11T12:00:06;6.53;;;3.85;;
61525;SDS011;47394;41.366;-8.738;2022-12-11T12:03:16;6.53;;;4.32;;
61525;SDS011;47394;41.366;-8.738;2022-12-11T12:13:31;7.28;;;5.40;;
61525;SDS011;47394;41.366;-8.738;2022-12-11T12:16:49;7.13;;;5.10;;
61525;SDS011;47394;41.366;-8.738;2022-12-11T12:26:32;6.53;;;5.10;;
61525;SDS011;47394;41.366;-8.738;2022-12-11T12:30:03;7.53;;;4.57;;
61525;SDS011;47394;41.366;-8.738;2022-12-11T12:33:30;8.43;;;4.95;;
61525;SDS011;47394;41.366;-8.738;2022-12-11T12:46:27;10.27;;;5.38;;
61525;SDS011;47394;41.366;-8.738;2022-12-11T12:49:43;9.73;;;5.40;;
61525;SDS011;47394;41.366;-8.738;2022-12-11T12:52:45;21.77;;;16.42;;
61525;SDS011;47394;41.366;-8.738;2022-12-11T12:56:04;17.30;;;7.35;;
61525;SDS011;47394;41.366;-8.738;2022-12-11T12:59:06;11.65;;;7.95;;
61525;SDS011;47394;41.366;-8.738;2022-12-11T13:02:48;13.35;;;9.25;;
61525;SDS011;47394;41.366;-8.738;2022-12-11T13:06:07;17.60;;;10.40;;
61525;SDS011;47394;41.366;-8.738;2022-12-11T13:09:15;12.30;;;8.20;;
61525;SDS011;47394;41.366;-8.738;2022-12-11T13:12:39;12.70;;;7.47;;
61525;SDS011;47394;41.366;-8.738;2022-12-11T13:15:41;16.75;;;7.60;;
61525;SDS011;47394;41.366;-8.738;2022-12-11T13:18:45;7.95;;;5.30;;
61525;SDS011;47394;41.366;-8.738;2022-12-11T13:26:07;9.13;;;4.35;;
61525;SDS011;47394;41.366;-8.738;2022-12-11T13:31:39;11.43;;;5.43;;
61525;SDS011;47394;41.366;-8.738;2022-12-11T13:34:44;8.40;;;4.05;;
61525;SDS011;47394;41.366;-8.738;2022-12-11T13:37:49;7.47;;;4.05;;
61525;SDS011;47394;41.366;-8.738;2022-12-11T13:40:54;7.82;;;4.35;;
61525;SDS011;47394;41.366;-8.738;2022-12-11T13:43:57;4.30;;;3.03;;
61525;SDS011;47394;41.366;-8.738;2022-12-11T13:46:57;9.98;;;2.97;;
61525;SDS011;47394;41.366;-8.738;2022-12-11T13:50:01;5.15;;;3.20;;
61525;SDS011;47394;41.366;-8.738;2022-12-11T13:53:03;6.60;;;3.17;;
61525;SDS011;47394;41.366;-8.738;2022-12-11T13:56:06;9.10;;;4.57;;
61525;SDS011;47394;41.366;-8.738;2022-12-11T13:59:17;11.38;;;4.07;;
61525;SDS011;47394;41.366;-8.738;2022-12-11T14:02:30;4.57;;;3.33;;
61525;SDS011;47394;41.366;-8.738;2022-12-11T14:05:32;5.28;;;3.28;;
61525;SDS011;47394;41.366;-8.738;2022-12-11T14:08:34;5.60;;;3.40;;
61525;SDS011;47394;41.366;-8.738;2022-12-11T14:11:37;9.95;;;5.07;;
61525;SDS011;47394;41.366;-8.738;2022-12-11T14:14:43;9.32;;;5.40;;
61525;SDS011;47394;41.366;-8.738;2022-12-11T14:17:44;18.20;;;5.28;;
61525;SDS011;47394;41.366;-8.738;2022-12-11T14:20:44;18.20;;;6.20;;
61525;SDS011;47394;41.366;-8.738;2022-12-11T14:23:58;8.93;;;4.68;;
61525;SDS011;47394;41.366;-8.738;2022-12-11T14:27:02;19.15;;;5.72;;
61525;SDS011;47394;41.366;-8.738;2022-12-11T14:30:08;23.17;;;5.50;;
61525;SDS011;47394;41.366;-8.738;2022-12-11T14:33:08;14.68;;;5.07;;
61525;SDS011;47394;41.366;-8.738;2022-12-11T14:36:20;13.52;;;4.80;;
61525;SDS011;47394;41.366;-8.738;2022-12-11T14:39:23;15.32;;;4.65;;
61525;SDS011;47394;41.366;-8.738;2022-12-11T14:42:29;19.52;;;3.97;;
61525;SDS011;47394;41.366;-8.738;2022-12-11T14:45:33;12.65;;;3.70;;
61525;SDS011;47394;41.366;-8.738;2022-12-11T14:48:54;11.20;;;3.67;;
61525;SDS011;47394;41.366;-8.738;2022-12-11T14:52:02;8.52;;;3.72;;
61525;SDS011;47394;41.366;-8.738;2022-12-11T14:55:06;13.65;;;3.50;;
61525;SDS011;47394;41.366;-8.738;2022-12-11T14:58:18;14.93;;;3.40;;
61525;SDS011;47394;41.366;-8.738;2022-12-11T15:01:40;23.70;;;3.80;;
61525;SDS011;47394;41.366;-8.738;2022-12-11T15:04:39;8.70;;;4.47;;
61525;SDS011;47394;41.366;-8.738;2022-12-11T15:11:14;7.07;;;3.17;;
61525;SDS011;47394;41.366;-8.738;2022-12-11T15:14:15;8.60;;;3.35;;
61525;SDS011;47394;41.366;-8.738;2022-12-11T15:17:16;8.15;;;3.15;;
61525;SDS011;47394;41.366;-8.738;2022-12-11T15:20:26;10.30;;;4.07;;
61525;SDS011;47394;41.366;-8.738;2022-12-11T15:26:45;16.15;;;5.13;;
61525;SDS011;47394;41.366;-8.738;2022-12-11T15:29:49;16.23;;;5.32;;
61525;SDS011;47394;41.366;-8.738;2022-12-11T15:33:14;11.25;;;4.93;;
61525;SDS011;47394;41.366;-8.738;2022-12-11T15:36:23;11.25;;;3.97;;
61525;SDS011;47394;41.366;-8.738;2022-12-11T15:39:23;9.95;;;4.60;;
61525;SDS011;47394;41.366;-8.738;2022-12-11T15:45:35;8.57;;;4.25;;
61525;SDS011;47394;41.366;-8.738;2022-12-11T15:48:35;7.20;;;4.43;;
61525;SDS011;47394;41.366;-8.738;2022-12-11T15:51:34;8.00;;;5.88;;
61525;SDS011;47394;41.366;-8.738;2022-12-11T15:54:33;7.32;;;5.28;;
61525;SDS011;47394;41.366;-8.738;2022-12-11T15:57:34;10.80;;;5.53;;
61525;SDS011;47394;41.366;-8.738;2022-12-11T16:00:34;7.97;;;5.10;;
61525;SDS011;47394;41.366;-8.738;2022-12-11T16:03:34;9.63;;;5.15;;
61525;SDS011;47394;41.366;-8.738;2022-12-11T16:06:33;11.43;;;6.05;;
61525;SDS011;47394;41.366;-8.738;2022-12-11T16:09:32;9.90;;;6.03;;
61525;SDS011;47394;41.366;-8.738;2022-12-11T16:12:32;8.60;;;6.80;;
61525;SDS011;47394;41.366;-8.738;2022-12-11T16:15:31;8.75;;;5.97;;
61525;SDS011;47394;41.366;-8.738;2022-12-11T16:18:31;7.90;;;5.68;;
61525;SDS011;47394;41.366;-8.738;2022-12-11T16:21:30;10.70;;;7.20;;
61525;SDS011;47394;41.366;-8.738;2022-12-11T16:24:30;17.08;;;11.43;;
61525;SDS011;47394;41.366;-8.738;2022-12-11T16:27:31;12.30;;;9.43;;
61525;SDS011;47394;41.366;-8.738;2022-12-11T16:30:30;9.07;;;7.53;;
61525;SDS011;47394;41.366;-8.738;2022-12-11T16:33:29;9.88;;;7.47;;
61525;SDS011;47394;41.366;-8.738;2022-12-11T16:36:29;9.85;;;7.93;;
61525;SDS011;47394;41.366;-8.738;2022-12-11T16:39:28;15.75;;;9.05;;
61525;SDS011;47394;41.366;-8.738;2022-12-11T16:42:27;17.08;;;10.00;;
61525;SDS011;47394;41.366;-8.738;2022-12-11T16:45:26;15.23;;;10.45;;
61525;SDS011;47394;41.366;-8.738;2022-12-11T16:48:26;16.02;;;13.13;;
61525;SDS011;47394;41.366;-8.738;2022-12-11T16:51:25;15.68;;;13.15;;
61525;SDS011;47394;41.366;-8.738;2022-12-11T16:54:24;16.30;;;13.10;;
61525;SDS011;47394;41.366;-8.738;2022-12-11T16:57:24;16.13;;;12.65;;
61525;SDS011;47394;41.366;-8.738;2022-12-11T17:00:23;12.60;;;11.10;;
61525;SDS011;47394;41.366;-8.738;2022-12-11T17:03:22;12.77;;;11.38;;
61525;SDS011;47394;41.366;-8.738;2022-12-11T17:06:21;13.60;;;10.90;;
61525;SDS011;47394;41.366;-8.738;2022-12-11T17:09:21;17.50;;;12.20;;
61525;SDS011;47394;41.366;-8.738;2022-12-11T17:12:20;14.75;;;12.13;;
61525;SDS011;47394;41.366;-8.738;2022-12-11T17:15:19;16.13;;;12.10;;
61525;SDS011;47394;41.366;-8.738;2022-12-11T17:18:19;13.35;;;11.25;;
61525;SDS011;47394;41.366;-8.738;2022-12-11T17:21:19;25.38;;;10.40;;
61525;SDS011;47394;41.366;-8.738;2022-12-11T17:24:19;17.25;;;11.52;;
61525;SDS011;47394;41.366;-8.738;2022-12-11T17:27:21;13.90;;;12.18;;
61525;SDS011;47394;41.366;-8.738;2022-12-11T17:30:20;16.00;;;11.68;;
61525;SDS011;47394;41.366;-8.738;2022-12-11T17:33:20;13.00;;;10.70;;
61525;SDS011;47394;41.366;-8.738;2022-12-11T17:36:20;11.30;;;10.07;;
61525;SDS011;47394;41.366;-8.738;2022-12-11T17:39:19;10.68;;;9.32;;
61525;SDS011;47394;41.366;-8.738;2022-12-11T17:42:20;9.85;;;8.85;;
61525;SDS011;47394;41.366;-8.738;2022-12-11T17:45:19;12.00;;;10.25;;
61525;SDS011;47394;41.366;-8.738;2022-12-11T17:48:19;12.38;;;10.52;;
61525;SDS011;47394;41.366;-8.738;2022-12-11T17:51:19;12.00;;;9.95;;
61525;SDS011;47394;41.366;-8.738;2022-12-11T17:54:18;11.65;;;10.45;;
61525;SDS011;47394;41.366;-8.738;2022-12-11T17:57:17;12.43;;;11.13;;
61525;SDS011;47394;41.366;-8.738;2022-12-11T18:00:21;13.27;;;10.32;;
61525;SDS011;47394;41.366;-8.738;2022-12-11T18:03:20;18.40;;;12.52;;
61525;SDS011;47394;41.366;-8.738;2022-12-11T18:06:20;15.43;;;13.02;;
61525;SDS011;47394;41.366;-8.738;2022-12-11T18:09:19;17.05;;;13.98;;
61525;SDS011;47394;41.366;-8.738;2022-12-11T18:12:18;17.90;;;15.73;;
61525;SDS011;47394;41.366;-8.738;2022-12-11T18:15:18;18.02;;;14.57;;
61525;SDS011;47394;41.366;-8.738;2022-12-11T18:18:23;18.42;;;15.88;;
61525;SDS011;47394;41.366;-8.738;2022-12-11T18:21:25;26.38;;;17.77;;
61525;SDS011;47394;41.366;-8.738;2022-12-11T18:24:25;18.00;;;15.68;;
61525;SDS011;47394;41.366;-8.738;2022-12-11T18:27:24;16.52;;;14.82;;
61525;SDS011;47394;41.366;-8.738;2022-12-11T18:30:24;19.42;;;17.48;;
61525;SDS011;47394;41.366;-8.738;2022-12-11T18:33:23;17.98;;;16.08;;
61525;SDS011;47394;41.366;-8.738;2022-12-11T18:36:22;23.55;;;18.17;;
61525;SDS011;47394;41.366;-8.738;2022-12-11T18:39:22;22.38;;;19.17;;
61525;SDS011;47394;41.366;-8.738;2022-12-11T18:42:21;21.98;;;17.30;;
61525;SDS011;47394;41.366;-8.738;2022-12-11T18:45:20;25.30;;;22.08;;
61525;SDS011;47394;41.366;-8.738;2022-12-11T18:48:20;26.08;;;23.27;;
61525;SDS011;47394;41.366;-8.738;2022-12-11T18:51:21;24.58;;;21.95;;
61525;SDS011;47394;41.366;-8.738;2022-12-11T18:54:20;32.53;;;24.13;;
61525;SDS011;47394;41.366;-8.738;2022-12-11T18:57:20;27.60;;;22.85;;
61525;SDS011;47394;41.366;-8.738;2022-12-11T19:00:19;26.33;;;22.25;;
61525;SDS011;47394;41.366;-8.738;2022-12-11T19:03:23;28.42;;;22.85;;
61525;SDS011;47394;41.366;-8.738;2022-12-11T19:06:23;28.25;;;23.63;;
61525;SDS011;47394;41.366;-8.738;2022-12-11T19:09:22;29.40;;;24.60;;
61525;SDS011;47394;41.366;-8.738;2022-12-11T19:12:22;28.25;;;24.17;;
61525;SDS011;47394;41.366;-8.738;2022-12-11T19:15:22;27.00;;;24.13;;
61525;SDS011;47394;41.366;-8.738;2022-12-11T19:18:23;29.52;;;22.30;;
61525;SDS011;47394;41.366;-8.738;2022-12-11T19:21:23;25.65;;;22.88;;
61525;SDS011;47394;41.366;-8.738;2022-12-11T19:24:22;28.65;;;21.77;;